Time;durP1;ratioP1;P1;durP2;ratioP2;P2;SDS_P1;SDS_P2;PMS_P1;PMS_P2;Temp;Humidity;BMP_temperature;BMP_pressure;BME280_temperature;BME280_humidity;BME280_pressure;Samples;Min_cycle;Max_cycle;Signal;HPM_P1;HPM_P2
2023/07/27 16:46:41;;;;;;;0.93;0.60;;;19.10;99.90;;;;;;3421645;23;20242;-77
2023/07/27 16:49:07;;;;;;;1.70;0.60;;;19.00;99.90;;;;;;4891557;29;20708;-78
2023/07/27 16:51:35;;;;;;;0.88;0.52;;;19.00;99.90;;;;;;4900438;29;20210;-72
2023/07/27 16:54:02;;;;;;;1.00;0.50;;;19.00;99.90;;;;;;4898387;29;20314;-75
2023/07/27 16:56:28;;;;;;;1.45;0.73;;;19.00;99.90;;;;;;4889601;29;20659;-77
2023/07/27 16:58:55;;;;;;;2.13;0.50;;;19.00;99.90;;;;;;4882694;29;20302;-74
2023/07/27 17:01:22;;;;;;;0.75;0.40;;;19.00;99.90;;;;;;4899714;29;20214;-73
2023/07/27 17:03:50;;;;;;;0.73;0.52;;;19.00;99.90;;;;;;4899360;29;20321;-74
2023/07/27 17:06:19;;;;;;;0.88;0.52;;;18.90;99.90;;;;;;4899018;29;20217;-73
2023/07/27 17:08:46;;;;;;;0.80;0.50;;;19.00;99.90;;;;;;4898410;29;20748;-72
2023/07/27 17:11:13;;;;;;;1.52;0.40;;;19.00;99.90;;;;;;4897581;29;20514;-74
2023/07/27 17:13:39;;;;;;;0.93;0.75;;;19.00;99.90;;;;;;4898063;29;20658;-73
2023/07/27 17:16:08;;;;;;;1.30;0.47;;;19.00;99.90;;;;;;4898017;29;20214;-77
2023/07/27 17:18:36;;;;;;;0.95;0.60;;;19.00;99.90;;;;;;4889729;29;20245;-76
2023/07/27 17:21:06;;;;;;;0.60;0.50;;;19.10;99.90;;;;;;4896171;29;20214;-74
2023/07/27 17:23:34;;;;;;;0.80;0.60;;;19.10;99.90;;;;;;4889600;29;20233;-76
2023/07/27 17:26:01;;;;;;;2.28;0.77;;;19.20;99.90;;;;;;4889560;29;20216;-77
2023/07/27 17:28:30;;;;;;;0.85;0.50;;;19.30;99.90;;;;;;4892360;29;20218;-73
2023/07/27 17:30:58;;;;;;;1.50;0.60;;;19.30;99.90;;;;;;4893465;29;20267;-74
2023/07/27 17:33:26;;;;;;;0.60;0.52;;;19.30;99.90;;;;;;4888065;29;20262;-75
2023/07/27 17:35:56;;;;;;;0.88;0.50;;;19.20;99.90;;;;;;4892302;29;20203;-72
2023/07/27 17:38:27;;;;;;;0.65;0.45;;;19.10;99.90;;;;;;4886946;29;20233;-73
2023/07/27 17:40:54;;;;;;;1.02;0.57;;;19.00;99.90;;;;;;4893784;29;20636;-72
2023/07/27 17:43:22;;;;;;;1.05;0.40;;;19.00;99.90;;;;;;4896216;29;20226;-71
2023/07/27 17:45:49;;;;;;;1.52;0.50;;;19.00;99.90;;;;;;4894157;29;20221;-71
2023/07/27 17:48:18;;;;;;;0.38;0.35;;;18.80;99.90;;;;;;4894653;29;20218;-71
2023/07/27 17:50:45;;;;;;;0.95;0.35;;;18.80;99.90;;;;;;4891083;29;20230;-71
2023/07/27 17:53:12;;;;;;;1.77;0.40;;;18.70;99.90;;;;;;4895648;29;20254;-72
2023/07/27 17:55:40;;;;;;;1.63;0.28;;;18.80;99.90;;;;;;4897508;29;20232;-71
2023/07/27 17:58:09;;;;;;;0.57;0.40;;;18.80;99.90;;;;;;4897244;29;20301;-72
2023/07/27 18:00:36;;;;;;;0.47;0.38;;;18.80;99.90;;;;;;4896988;29;20607;-72
2023/07/27 18:03:03;;;;;;;0.52;0.40;;;18.90;99.90;;;;;;4899863;29;20703;-72
2023/07/27 18:05:30;;;;;;;0.50;0.40;;;18.90;99.90;;;;;;4903438;29;20207;-75
2023/07/27 18:07:58;;;;;;;1.38;0.85;;;18.90;99.90;;;;;;4907364;29;20764;-74
2023/07/27 18:10:25;;;;;;;0.80;0.52;;;19.00;99.90;;;;;;4906168;29;20328;-73
2023/07/27 18:12:53;;;;;;;0.70;0.40;;;18.90;99.90;;;;;;4900994;29;20302;-67
2023/07/27 18:15:20;;;;;;;0.50;0.40;;;19.00;99.90;;;;;;4889797;29;20215;-73
2023/07/27 18:17:47;;;;;;;0.75;0.55;;;19.00;99.90;;;;;;4892647;29;20221;-79
2023/07/27 18:20:14;;;;;;;0.80;0.50;;;19.10;99.90;;;;;;4896577;29;20297;-74
2023/07/27 18:22:41;;;;;;;1.30;0.40;;;19.20;99.90;;;;;;4892825;29;20224;-73
2023/07/27 18:25:08;;;;;;;0.88;0.60;;;19.20;99.90;;;;;;4899146;29;20262;-75
2023/07/27 18:27:35;;;;;;;0.70;0.60;;;19.10;99.90;;;;;;4896668;29;20220;-76
2023/07/27 18:30:04;;;;;;;0.68;0.50;;;19.10;99.90;;;;;;4896196;29;20329;-76
2023/07/27 18:32:31;;;;;;;1.77;0.50;;;19.10;99.90;;;;;;4896665;29;20225;-76
2023/07/27 18:34:58;;;;;;;0.65;0.60;;;18.90;99.90;;;;;;4896682;29;20313;-76
2023/07/27 18:37:24;;;;;;;0.65;0.50;;;18.90;99.90;;;;;;4896764;29;20742;-77
2023/07/27 18:39:51;;;;;;;0.60;0.50;;;18.90;99.90;;;;;;4897437;29;20203;-74
2023/07/27 18:42:18;;;;;;;0.90;0.57;;;18.90;99.90;;;;;;4896853;29;20301;-73
2023/07/27 18:44:45;;;;;;;0.63;0.40;;;18.80;99.90;;;;;;4887746;29;20227;-77
2023/07/27 18:47:13;;;;;;;1.60;0.52;;;18.70;99.90;;;;;;4896488;29;20225;-75
2023/07/27 18:49:40;;;;;;;0.60;0.45;;;18.70;99.90;;;;;;4896639;29;20241;-74
2023/07/27 18:52:08;;;;;;;0.70;0.50;;;18.70;99.90;;;;;;4901602;29;20338;-73
2023/07/27 18:54:35;;;;;;;0.57;0.43;;;18.70;99.90;;;;;;4902634;29;20233;-76
2023/07/27 18:57:02;;;;;;;2.03;0.43;;;18.70;99.90;;;;;;4906835;29;20206;-75
2023/07/27 18:59:29;;;;;;;0.60;0.32;;;18.70;99.90;;;;;;4903535;29;20220;-77
2023/07/27 19:01:55;;;;;;;1.05;0.50;;;18.70;99.90;;;;;;4904368;29;20235;-75
2023/07/27 19:04:24;;;;;;;0.70;0.40;;;18.70;99.90;;;;;;4904860;29;20262;-77
2023/07/27 19:06:52;;;;;;;0.63;0.37;;;18.70;99.90;;;;;;4903528;29;20206;-73
2023/07/27 19:09:19;;;;;;;0.88;0.38;;;18.70;99.90;;;;;;4905572;29;20679;-75
2023/07/27 19:11:45;;;;;;;0.60;0.45;;;18.60;99.90;;;;;;4904994;29;20206;-77
2023/07/27 19:14:12;;;;;;;1.13;0.70;;;18.70;99.90;;;;;;4901419;29;20241;-76
2023/07/27 19:16:39;;;;;;;0.70;0.50;;;18.70;99.90;;;;;;4905938;29;20299;-75
2023/07/27 19:19:08;;;;;;;0.90;0.63;;;18.70;99.90;;;;;;4908108;29;20298;-75
2023/07/27 19:21:36;;;;;;;0.47;0.45;;;18.70;99.90;;;;;;4908472;29;20212;-76
2023/07/27 19:24:03;;;;;;;0.73;0.43;;;18.70;99.90;;;;;;4910685;29;20317;-76
2023/07/27 19:26:33;;;;;;;0.70;0.50;;;18.50;99.90;;;;;;4906262;29;20213;-76
2023/07/27 19:29:01;;;;;;;0.60;0.40;;;18.40;99.90;;;;;;4911702;29;20665;-74
2023/07/27 19:31:28;;;;;;;1.25;0.60;;;18.30;99.90;;;;;;4899600;29;20321;-74
2023/07/27 19:33:55;;;;;;;1.15;0.50;;;18.30;99.90;;;;;;4899952;29;20241;-74
2023/07/27 19:36:22;;;;;;;0.70;0.45;;;18.30;99.90;;;;;;4899494;29;20215;-76
2023/07/27 19:38:50;;;;;;;0.80;0.50;;;18.20;99.90;;;;;;4899155;29;20666;-75
2023/07/27 19:41:18;;;;;;;1.20;0.47;;;18.30;99.90;;;;;;4899719;29;20748;-76
2023/07/27 19:43:45;;;;;;;0.50;0.40;;;18.20;99.90;;;;;;4899661;29;20230;-78
2023/07/27 19:46:11;;;;;;;0.77;0.40;;;18.30;99.90;;;;;;4899834;29;20305;-78
2023/07/27 19:48:37;;;;;;;0.50;0.30;;;18.30;99.90;;;;;;4899641;29;20309;-74
2023/07/27 19:51:04;;;;;;;0.50;0.35;;;18.30;99.90;;;;;;4887227;29;20321;-80
2023/07/27 19:53:31;;;;;;;0.70;0.47;;;18.30;99.90;;;;;;4899295;29;20535;-76
2023/07/27 19:56:03;;;;;;;0.70;0.40;;;18.20;99.90;;;;;;4899091;29;20236;-79
2023/07/27 19:58:30;;;;;;;0.63;0.43;;;18.20;99.90;;;;;;4899680;29;20217;-79
2023/07/27 20:00:58;;;;;;;0.57;0.40;;;18.20;99.90;;;;;;4899731;29;20304;-79
2023/07/27 20:03:25;;;;;;;1.63;0.40;;;18.20;99.90;;;;;;4899358;29;20234;-78
2023/07/27 20:05:53;;;;;;;0.87;0.50;;;18.20;99.90;;;;;;4899624;29;20297;-79
2023/07/27 20:08:19;;;;;;;0.70;0.50;;;18.20;99.90;;;;;;4899519;29;20262;-77
2023/07/27 20:10:46;;;;;;;1.30;0.60;;;18.10;99.90;;;;;;4899618;29;20234;-77
2023/07/27 20:13:15;;;;;;;1.30;0.50;;;18.20;99.90;;;;;;4899174;29;20238;-79
2023/07/27 20:15:41;;;;;;;2.13;0.50;;;18.30;99.90;;;;;;4899601;29;20214;-78
2023/07/27 20:18:08;;;;;;;0.52;0.50;;;18.20;99.90;;;;;;4899090;29;20270;-79
2023/07/27 20:20:37;;;;;;;0.90;0.35;;;18.30;99.90;;;;;;4899047;29;20217;-79
2023/07/27 20:23:03;;;;;;;2.05;0.43;;;18.20;99.90;;;;;;4899044;29;20297;-79
2023/07/27 20:25:30;;;;;;;0.55;0.40;;;18.20;99.90;;;;;;4898545;29;20212;-77
2023/07/27 20:27:57;;;;;;;2.50;0.60;;;18.20;99.90;;;;;;4899007;29;20213;-78
2023/07/27 20:30:25;;;;;;;1.13;0.63;;;18.20;99.90;;;;;;4898970;29;20244;-77
2023/07/27 20:32:52;;;;;;;0.75;0.55;;;18.10;99.90;;;;;;4899022;29;20214;-78
2023/07/27 20:35:19;;;;;;;0.60;0.60;;;18.20;99.90;;;;;;4898843;29;20222;-79
2023/07/27 20:37:46;;;;;;;0.60;0.50;;;18.20;99.90;;;;;;4899281;29;20206;-79
2023/07/27 20:40:13;;;;;;;1.53;0.60;;;18.10;99.90;;;;;;4899079;29;20290;-77
2023/07/27 20:42:40;;;;;;;1.20;0.80;;;18.10;99.90;;;;;;4899059;29;20214;-77
2023/07/27 20:45:09;;;;;;;1.73;0.60;;;18.10;99.90;;;;;;4898515;29;20297;-75
2023/07/27 20:47:37;;;;;;;0.70;0.60;;;18.10;99.90;;;;;;4898723;29;20555;-78
2023/07/27 20:50:04;;;;;;;1.40;0.80;;;18.00;99.90;;;;;;4898700;29;20234;-76
2023/07/27 20:52:31;;;;;;;1.02;0.70;;;18.10;99.90;;;;;;4899183;29;20214;-77
2023/07/27 20:54:58;;;;;;;2.05;0.60;;;18.10;99.90;;;;;;4898509;29;20223;-77
2023/07/27 20:57:25;;;;;;;0.88;0.63;;;18.10;99.90;;;;;;4898630;29;20213;-77
2023/07/27 20:59:54;;;;;;;1.02;0.60;;;18.00;99.90;;;;;;4898452;29;20306;-77
2023/07/27 21:02:22;;;;;;;1.37;0.77;;;18.00;99.90;;;;;;4898332;29;20270;-79
2023/07/27 21:04:51;;;;;;;0.93;0.60;;;18.10;99.90;;;;;;4898569;29;20693;-74
2023/07/27 21:07:17;;;;;;;1.00;0.60;;;18.10;99.90;;;;;;4898008;29;20658;-78
2023/07/27 21:09:46;;;;;;;2.53;0.40;;;18.20;99.90;;;;;;4898259;29;20207;-78
2023/07/27 21:12:17;;;;;;;1.30;0.50;;;18.20;99.90;;;;;;4897895;29;20210;-77
2023/07/27 21:14:44;;;;;;;0.53;0.40;;;18.30;99.90;;;;;;4897672;29;20241;-76
2023/07/27 21:17:11;;;;;;;1.48;0.60;;;18.20;99.90;;;;;;4898262;29;20748;-74
2023/07/27 21:19:37;;;;;;;1.15;0.50;;;18.30;99.90;;;;;;4898699;29;20232;-77
2023/07/27 21:22:06;;;;;;;1.47;0.60;;;18.40;99.90;;;;;;4898621;29;20221;-79
2023/07/27 21:24:33;;;;;;;0.57;0.50;;;18.30;99.90;;;;;;4897977;29;20230;-81
2023/07/27 21:26:59;;;;;;;0.50;0.40;;;18.30;99.90;;;;;;4897634;29;20211;-78
2023/07/27 21:29:26;;;;;;;0.60;0.40;;;18.20;99.90;;;;;;4897992;29;20214;-77
2023/07/27 21:31:53;;;;;;;1.13;0.50;;;18.10;99.90;;;;;;4897650;29;20727;-73
2023/07/27 21:34:22;;;;;;;0.60;0.40;;;18.10;99.90;;;;;;4897964;29;20443;-73
2023/07/27 21:36:51;;;;;;;0.52;0.50;;;18.20;99.90;;;;;;4897757;29;20210;-77
2023/07/27 21:39:20;;;;;;;0.95;0.50;;;18.20;99.90;;;;;;4898130;29;20206;-73
2023/07/27 21:41:47;;;;;;;0.40;0.40;;;18.20;99.90;;;;;;4898220;29;20738;-76
2023/07/27 21:44:14;;;;;;;0.60;0.47;;;18.10;99.90;;;;;;4897132;29;20226;-74
